sensor_id;sensor_type;location;lat;lon;timestamp;pressure;altitude;pressure_sealevel;temperature;humidity
48796;BME280;34607;48.520;-1.330;2023-01-10T08:11:01;100317.16;;;7.40;100.00
48796;BME280;34607;48.520;-1.330;2023-01-10T08:13:29;100326.16;;;7.55;100.00
48796;BME280;34607;48.520;-1.330;2023-01-10T08:15:56;100312.44;;;7.57;100.00
48796;BME280;34607;48.520;-1.330;2023-01-10T08:18:24;100309.25;;;7.64;100.00
48796;BME280;34607;48.520;-1.330;2023-01-10T08:20:52;100286.06;;;7.64;100.00
48796;BME280;34607;48.520;-1.330;2023-01-10T08:23:20;100292.03;;;7.63;100.00
48796;BME280;34607;48.520;-1.330;2023-01-10T08:25:47;100282.63;;;7.65;100.00
48796;BME280;34607;48.520;-1.330;2023-01-10T08:28:17;100280.00;;;7.64;100.00
48796;BME280;34607;48.520;-1.330;2023-01-10T08:30:45;100288.03;;;7.75;100.00
48796;BME280;34607;48.520;-1.330;2023-01-10T08:33:12;100300.34;;;7.85;100.00
48796;BME280;34607;48.520;-1.330;2023-01-10T08:35:41;100291.75;;;7.86;100.00
48796;BME280;34607;48.520;-1.330;2023-01-10T08:38:10;100281.16;;;7.75;100.00
48796;BME280;34607;48.520;-1.330;2023-01-10T08:40:37;100291.63;;;7.80;100.00
48796;BME280;34607;48.520;-1.330;2023-01-10T08:43:06;100272.03;;;7.88;100.00
48796;BME280;34607;48.520;-1.330;2023-01-10T08:45:35;100285.09;;;7.94;100.00
48796;BME280;34607;48.520;-1.330;2023-01-10T08:48:03;100280.75;;;7.93;100.00
48796;BME280;34607;48.520;-1.330;2023-01-10T08:50:31;100268.81;;;7.97;100.00
48796;BME280;34607;48.520;-1.330;2023-01-10T08:52:59;100280.13;;;8.00;100.00
48796;BME280;34607;48.520;-1.330;2023-01-10T08:55:27;100284.38;;;8.00;100.00
48796;BME280;34607;48.520;-1.330;2023-01-10T08:57:57;100279.31;;;8.03;100.00
48796;BME280;34607;48.520;-1.330;2023-01-10T09:00:25;100293.31;;;8.13;100.00
48796;BME280;34607;48.520;-1.330;2023-01-10T09:02:53;100282.09;;;8.11;100.00
48796;BME280;34607;48.520;-1.330;2023-01-10T09:05:20;100279.53;;;8.12;100.00
48796;BME280;34607;48.520;-1.330;2023-01-10T09:07:47;100285.56;;;8.13;100.00
48796;BME280;34607;48.520;-1.330;2023-01-10T09:10:15;100283.94;;;8.16;100.00
48796;BME280;34607;48.520;-1.330;2023-01-10T09:12:42;100278.78;;;8.16;100.00
48796;BME280;34607;48.520;-1.330;2023-01-10T09:15:23;100272.69;;;8.13;100.00
48796;BME280;34607;48.520;-1.330;2023-01-10T09:17:54;100289.31;;;8.25;100.00
48796;BME280;34607;48.520;-1.330;2023-01-10T09:20:22;100297.97;;;8.28;100.00
48796;BME280;34607;48.520;-1.330;2023-01-10T09:22:50;100292.88;;;8.31;100.00
48796;BME280;34607;48.520;-1.330;2023-01-10T09:25:17;100300.75;;;8.35;100.00
48796;BME280;34607;48.520;-1.330;2023-01-10T09:27:44;100272.81;;;8.19;100.00
48796;BME280;34607;48.520;-1.330;2023-01-10T09:30:12;100299.06;;;8.37;100.00
48796;BME280;34607;48.520;-1.330;2023-01-10T09:32:40;100288.00;;;8.41;100.00
48796;BME280;34607;48.520;-1.330;2023-01-10T09:35:08;100285.59;;;8.48;100.00
48796;BME280;34607;48.520;-1.330;2023-01-10T09:37:35;100281.41;;;8.53;100.00
48796;BME280;34607;48.520;-1.330;2023-01-10T09:40:05;100276.28;;;8.54;100.00
48796;BME280;34607;48.520;-1.330;2023-01-10T09:42:54;100279.81;;;8.58;100.00
48796;BME280;34607;48.520;-1.330;2023-01-10T09:45:34;100284.19;;;8.60;100.00
48796;BME280;34607;48.520;-1.330;2023-01-10T09:48:05;100280.84;;;8.66;100.00
48796;BME280;34607;48.520;-1.330;2023-01-10T09:50:43;100271.44;;;8.68;100.00
48796;BME280;34607;48.520;-1.330;2023-01-10T09:53:16;100274.22;;;8.76;100.00
48796;BME280;34607;48.520;-1.330;2023-01-10T09:55:51;100279.44;;;8.80;100.00
48796;BME280;34607;48.520;-1.330;2023-01-10T09:58:19;100285.63;;;8.87;100.00
48796;BME280;34607;48.520;-1.330;2023-01-10T10:00:50;100287.50;;;8.93;100.00
48796;BME280;34607;48.520;-1.330;2023-01-10T10:03:22;100297.81;;;8.94;100.00
48796;BME280;34607;48.520;-1.330;2023-01-10T10:05:53;100292.78;;;8.99;100.00
48796;BME280;34607;48.520;-1.330;2023-01-10T10:08:20;100285.16;;;9.05;100.00
48796;BME280;34607;48.520;-1.330;2023-01-10T10:10:56;100289.69;;;9.15;100.00
48796;BME280;34607;48.520;-1.330;2023-01-10T10:13:33;100285.50;;;9.21;100.00
48796;BME280;34607;48.520;-1.330;2023-01-10T10:16:10;100275.00;;;9.14;100.00
48796;BME280;34607;48.520;-1.330;2023-01-10T10:18:47;100302.91;;;9.29;100.00
48796;BME280;34607;48.520;-1.330;2023-01-10T10:21:24;100277.84;;;9.27;100.00
48796;BME280;34607;48.520;-1.330;2023-01-10T10:24:02;100290.16;;;9.38;100.00
48796;BME280;34607;48.520;-1.330;2023-01-10T10:26:33;100298.03;;;9.45;100.00
48796;BME280;34607;48.520;-1.330;2023-01-10T10:29:24;100292.97;;;9.49;100.00
48796;BME280;34607;48.520;-1.330;2023-01-10T10:32:24;100292.22;;;9.55;100.00
48796;BME280;34607;48.520;-1.330;2023-01-10T10:34:57;100275.84;;;9.56;100.00
48796;BME280;34607;48.520;-1.330;2023-01-10T10:37:30;100280.34;;;9.65;100.00
48796;BME280;34607;48.520;-1.330;2023-01-10T10:40:01;100268.25;;;9.64;100.00
48796;BME280;34607;48.520;-1.330;2023-01-10T10:42:33;100274.50;;;9.77;100.00
48796;BME280;34607;48.520;-1.330;2023-01-10T10:45:04;100264.16;;;9.77;100.00
48796;BME280;34607;48.520;-1.330;2023-01-10T10:47:34;100258.28;;;9.84;100.00
48796;BME280;34607;48.520;-1.330;2023-01-10T10:50:11;100265.25;;;9.89;100.00
48796;BME280;34607;48.520;-1.330;2023-01-10T10:52:45;100248.94;;;9.93;100.00
48796;BME280;34607;48.520;-1.330;2023-01-10T10:55:14;100216.06;;;9.86;100.00
48796;BME280;34607;48.520;-1.330;2023-01-10T10:57:44;100243.06;;;10.04;100.00
48796;BME280;34607;48.520;-1.330;2023-01-10T11:00:15;100243.25;;;10.13;100.00
48796;BME280;34607;48.520;-1.330;2023-01-10T11:02:46;100245.09;;;10.22;100.00
48796;BME280;34607;48.520;-1.330;2023-01-10T11:05:18;100239.91;;;10.20;100.00
48796;BME280;34607;48.520;-1.330;2023-01-10T11:07:48;100237.44;;;10.26;100.00
48796;BME280;34607;48.520;-1.330;2023-01-10T11:10:21;100234.09;;;10.32;100.00
48796;BME280;34607;48.520;-1.330;2023-01-10T11:13:03;100232.47;;;10.39;100.00
48796;BME280;34607;48.520;-1.330;2023-01-10T11:15:39;100216.94;;;10.39;100.00
48796;BME280;34607;48.520;-1.330;2023-01-10T11:18:11;100223.09;;;10.47;100.00
48796;BME280;34607;48.520;-1.330;2023-01-10T11:20:47;100224.03;;;10.54;100.00
48796;BME280;34607;48.520;-1.330;2023-01-10T11:23:27;100214.59;;;10.56;100.00
48796;BME280;34607;48.520;-1.330;2023-01-10T11:25:56;100206.09;;;10.64;100.00
48796;BME280;34607;48.520;-1.330;2023-01-10T11:28:28;100195.84;;;10.74;100.00
48796;BME280;34607;48.520;-1.330;2023-01-10T11:30:55;100201.09;;;10.80;100.00
48796;BME280;34607;48.520;-1.330;2023-01-10T11:33:26;100191.66;;;10.85;100.00
48796;BME280;34607;48.520;-1.330;2023-01-10T11:35:59;100190.03;;;10.92;100.00
48796;BME280;34607;48.520;-1.330;2023-01-10T11:38:29;100191.81;;;10.97;100.00
48796;BME280;34607;48.520;-1.330;2023-01-10T11:40:58;100182.38;;;11.02;100.00
48796;BME280;34607;48.520;-1.330;2023-01-10T11:43:31;100178.88;;;10.97;100.00
48796;BME280;34607;48.520;-1.330;2023-01-10T11:46:02;100169.44;;;11.04;100.00
48796;BME280;34607;48.520;-1.330;2023-01-10T11:48:42;100166.03;;;11.10;100.00
48796;BME280;34607;48.520;-1.330;2023-01-10T11:51:19;100177.41;;;11.24;100.00
48796;BME280;34607;48.520;-1.330;2023-01-10T11:53:55;100169.75;;;11.33;100.00
48796;BME280;34607;48.520;-1.330;2023-01-10T11:56:26;100156.78;;;11.33;100.00
48796;BME280;34607;48.520;-1.330;2023-01-10T11:58:56;100158.63;;;11.43;100.00
48796;BME280;34607;48.520;-1.330;2023-01-10T12:01:28;100148.22;;;11.42;100.00
48796;BME280;34607;48.520;-1.330;2023-01-10T12:03:56;100155.22;;;11.51;100.00
48796;BME280;34607;48.520;-1.330;2023-01-10T12:06:24;100152.69;;;11.55;100.00
48796;BME280;34607;48.520;-1.330;2023-01-10T12:08:54;100150.13;;;11.60;100.00
48796;BME280;34607;48.520;-1.330;2023-01-10T12:11:26;100142.41;;;11.66;100.00
48796;BME280;34607;48.520;-1.330;2023-01-10T12:13:56;100126.88;;;11.69;100.00
48796;BME280;34607;48.520;-1.330;2023-01-10T12:16:25;100132.13;;;11.80;100.00
48796;BME280;34607;48.520;-1.330;2023-01-10T12:18:55;100129.59;;;11.88;100.00
48796;BME280;34607;48.520;-1.330;2023-01-10T12:21:29;100123.66;;;11.96;100.00
48796;BME280;34607;48.520;-1.330;2023-01-10T12:24:02;100135.81;;;12.05;100.00
48796;BME280;34607;48.520;-1.330;2023-01-10T12:26:31;100134.09;;;12.06;100.00
48796;BME280;34607;48.520;-1.330;2023-01-10T12:29:06;100126.31;;;12.07;100.00
48796;BME280;34607;48.520;-1.330;2023-01-10T12:31:35;100128.97;;;12.18;100.00
48796;BME280;34607;48.520;-1.330;2023-01-10T12:34:12;100129.03;;;12.27;100.00
48796;BME280;34607;48.520;-1.330;2023-01-10T12:36:48;100114.34;;;12.32;100.00
48796;BME280;34607;48.520;-1.330;2023-01-10T12:39:23;100108.28;;;12.35;100.00
48796;BME280;34607;48.520;-1.330;2023-01-10T12:42:03;100106.59;;;12.40;100.00
48796;BME280;34607;48.520;-1.330;2023-01-10T12:44:59;100104.84;;;12.38;100.00
48796;BME280;34607;48.520;-1.330;2023-01-10T12:47:32;100107.44;;;12.38;100.00
48796;BME280;34607;48.520;-1.330;2023-01-10T12:50:09;100106.56;;;12.39;100.00
48796;BME280;34607;48.520;-1.330;2023-01-10T12:52:43;100104.00;;;12.40;100.00
48796;BME280;34607;48.520;-1.330;2023-01-10T12:55:15;100104.00;;;12.40;100.00
48796;BME280;34607;48.520;-1.330;2023-01-10T12:57:46;100085.78;;;12.29;100.00
48796;BME280;34607;48.520;-1.330;2023-01-10T13:00:20;100084.94;;;12.40;100.00
48796;BME280;34607;48.520;-1.330;2023-01-10T13:02:53;100079.72;;;12.30;100.00
48796;BME280;34607;48.520;-1.330;2023-01-10T13:05:24;100087.53;;;12.38;100.00
48796;BME280;34607;48.520;-1.330;2023-01-10T13:07:53;100092.75;;;12.40;100.00
48796;BME280;34607;48.520;-1.330;2023-01-10T13:10:23;100085.81;;;12.40;100.00
48796;BME280;34607;48.520;-1.330;2023-01-10T13:12:55;100082.34;;;12.40;100.00
48796;BME280;34607;48.520;-1.330;2023-01-10T13:15:27;100088.44;;;12.43;100.00
48796;BME280;34607;48.520;-1.330;2023-01-10T13:17:59;100065.88;;;12.33;100.00
48796;BME280;34607;48.520;-1.330;2023-01-10T13:20:35;100080.63;;;12.42;100.00
48796;BME280;34607;48.520;-1.330;2023-01-10T13:23:21;100060.66;;;12.25;100.00
48796;BME280;34607;48.520;-1.330;2023-01-10T13:26:01;100074.53;;;12.29;100.00
48796;BME280;34607;48.520;-1.330;2023-01-10T13:28:31;100067.59;;;12.28;100.00
48796;BME280;34607;48.520;-1.330;2023-01-10T13:31:00;100065.84;;;12.27;100.00
48796;BME280;34607;48.520;-1.330;2023-01-10T13:33:29;100064.13;;;12.26;100.00
48796;BME280;34607;48.520;-1.330;2023-01-10T13:36:06;100074.50;;;12.26;100.00
48796;BME280;34607;48.520;-1.330;2023-01-10T13:38:38;100043.31;;;12.20;100.00
48796;BME280;34607;48.520;-1.330;2023-01-10T13:41:11;100061.53;;;12.27;100.00
48796;BME280;34607;48.520;-1.330;2023-01-10T13:44:11;100063.25;;;12.24;100.00
48796;BME280;34607;48.520;-1.330;2023-01-10T13:46:44;100055.41;;;12.14;100.00
48796;BME280;34607;48.520;-1.330;2023-01-10T13:52:38;100051.97;;;12.18;100.00
48796;BME280;34607;48.520;-1.330;2023-01-10T13:55:29;100059.78;;;12.20;100.00
48796;BME280;34607;48.520;-1.330;2023-01-10T13:58:02;100062.38;;;12.18;100.00
48796;BME280;34607;48.520;-1.330;2023-01-10T14:00:44;100047.66;;;12.19;100.00
48796;BME280;34607;48.520;-1.330;2023-01-10T14:03:41;100063.22;;;12.19;100.00
48796;BME280;34607;48.520;-1.330;2023-01-10T14:06:14;100053.72;;;12.23;100.00
48796;BME280;34607;48.520;-1.330;2023-01-10T14:08:48;100051.13;;;12.23;100.00
48796;BME280;34607;48.520;-1.330;2023-01-10T14:11:16;100039.00;;;12.25;100.00
48796;BME280;34607;48.520;-1.330;2023-01-10T14:13:50;100037.28;;;12.28;100.00
48796;BME280;34607;48.520;-1.330;2023-01-10T14:16:34;100039.06;;;12.31;100.00
48796;BME280;34607;48.520;-1.330;2023-01-10T14:19:04;100039.06;;;12.31;100.00
48796;BME280;34607;48.520;-1.330;2023-01-10T14:21:41;100032.97;;;12.32;100.00
48796;BME280;34607;48.520;-1.330;2023-01-10T14:24:22;100035.59;;;12.30;100.00
48796;BME280;34607;48.520;-1.330;2023-01-10T14:26:51;100026.06;;;12.31;100.00
48796;BME280;34607;48.520;-1.330;2023-01-10T14:29:20;100004.41;;;12.26;100.00
48796;BME280;34607;48.520;-1.330;2023-01-10T14:31:49;100022.59;;;12.33;100.00
48796;BME280;34607;48.520;-1.330;2023-01-10T14:34:20;99998.31;;;12.17;100.00
48796;BME280;34607;48.520;-1.330;2023-01-10T14:36:54;100011.31;;;12.28;100.00
48796;BME280;34607;48.520;-1.330;2023-01-10T14:39:23;100017.41;;;12.29;100.00
48796;BME280;34607;48.520;-1.330;2023-01-10T14:41:54;100021.72;;;12.31;100.00
48796;BME280;34607;48.520;-1.330;2023-01-10T14:44:29;100009.59;;;12.32;100.00
48796;BME280;34607;48.520;-1.330;2023-01-10T14:46:58;100012.22;;;12.29;100.00
48796;BME280;34607;48.520;-1.330;2023-01-10T14:49:29;100016.53;;;12.28;100.00
48796;BME280;34607;48.520;-1.330;2023-01-10T14:52:11;100007.88;;;12.26;100.00
48796;BME280;34607;48.520;-1.330;2023-01-10T14:54:39;100012.19;;;12.26;100.00
48796;BME280;34607;48.520;-1.330;2023-01-10T14:57:16;100011.34;;;12.25;100.00
48796;BME280;34607;48.520;-1.330;2023-01-10T14:59:46;100011.31;;;12.19;100.00
48796;BME280;34607;48.520;-1.330;2023-01-10T15:02:18;100002.63;;;12.15;100.00
48796;BME280;34607;48.520;-1.330;2023-01-10T15:04:52;100017.34;;;12.16;100.00
48796;BME280;34607;48.520;-1.330;2023-01-10T15:07:20;100006.97;;;12.13;100.00
48796;BME280;34607;48.520;-1.330;2023-01-10T15:09:49;99992.22;;;12.09;100.00
48796;BME280;34607;48.520;-1.330;2023-01-10T15:12:18;99994.00;;;12.15;100.00
48796;BME280;34607;48.520;-1.330;2023-01-10T15:14:48;99994.88;;;12.20;100.00
48796;BME280;34607;48.520;-1.330;2023-01-10T15:17:17;99993.13;;;12.21;100.00
48796;BME280;34607;48.520;-1.330;2023-01-10T15:19:48;99992.25;;;12.22;100.00
48796;BME280;34607;48.520;-1.330;2023-01-10T15:22:24;99983.59;;;12.18;100.00
48796;BME280;34607;48.520;-1.330;2023-01-10T15:24:58;99982.75;;;12.17;100.00
48796;BME280;34607;48.520;-1.330;2023-01-10T15:27:26;99983.59;;;12.16;100.00
48796;BME280;34607;48.520;-1.330;2023-01-10T15:29:55;99979.25;;;12.12;100.00
48796;BME280;34607;48.520;-1.330;2023-01-10T15:32:26;99966.25;;;12.09;100.00
48796;BME280;34607;48.520;-1.330;2023-01-10T15:34:55;99950.66;;;11.98;100.00
48796;BME280;34607;48.520;-1.330;2023-01-10T15:37:25;99959.38;;;12.10;100.00
48796;BME280;34607;48.520;-1.330;2023-01-10T15:39:59;99961.06;;;12.05;100.00
48796;BME280;34607;48.520;-1.330;2023-01-10T15:42:27;99954.13;;;12.02;100.00
48796;BME280;34607;48.520;-1.330;2023-01-10T15:44:56;99959.31;;;11.99;100.00
48796;BME280;34607;48.520;-1.330;2023-01-10T15:47:38;99952.34;;;11.92;100.00
48796;BME280;34607;48.520;-1.330;2023-01-10T15:50:24;99954.97;;;11.96;100.00
48796;BME280;34607;48.520;-1.330;2023-01-10T15:52:53;99954.06;;;11.90;100.00
48796;BME280;34607;48.520;-1.330;2023-01-10T15:55:37;99954.97;;;11.93;100.00
48796;BME280;34607;48.520;-1.330;2023-01-10T15:58:05;99950.59;;;11.89;100.00
48796;BME280;34607;48.520;-1.330;2023-01-10T16:00:43;99945.38;;;11.86;100.00
48796;BME280;34607;48.520;-1.330;2023-01-10T16:03:21;99942.81;;;11.89;100.00
48796;BME280;34607;48.520;-1.330;2023-01-10T16:05:51;99939.31;;;11.86;100.00
48796;BME280;34607;48.520;-1.330;2023-01-10T16:08:22;99939.31;;;11.83;100.00
48796;BME280;34607;48.520;-1.330;2023-01-10T16:10:52;99939.31;;;11.79;100.00
48796;BME280;34607;48.520;-1.330;2023-01-10T16:13:19;99942.75;;;11.78;100.00
48796;BME280;34607;48.520;-1.330;2023-01-10T16:15:53;99908.09;;;11.64;100.00
48796;BME280;34607;48.520;-1.330;2023-01-10T16:18:21;99932.34;;;11.75;100.00
48796;BME280;34607;48.520;-1.330;2023-01-10T16:20:50;99915.91;;;11.73;100.00
48796;BME280;34607;48.520;-1.330;2023-01-10T16:23:19;99927.19;;;11.74;100.00
48796;BME280;34607;48.520;-1.330;2023-01-10T16:25:49;99918.50;;;11.70;100.00
48796;BME280;34607;48.520;-1.330;2023-01-10T16:28:19;99921.94;;;11.66;100.00
48796;BME280;34607;48.520;-1.330;2023-01-10T16:30:47;99922.81;;;11.67;100.00
48796;BME280;34607;48.520;-1.330;2023-01-10T16:33:17;99920.22;;;11.68;100.00
48796;BME280;34607;48.520;-1.330;2023-01-10T16:35:49;99923.69;;;11.67;100.00
48796;BME280;34607;48.520;-1.330;2023-01-10T16:38:17;99923.69;;;11.72;100.00
48796;BME280;34607;48.520;-1.330;2023-01-10T16:40:47;99924.56;;;11.75;100.00
48796;BME280;34607;48.520;-1.330;2023-01-10T16:43:15;99931.50;;;11.76;100.00
48796;BME280;34607;48.520;-1.330;2023-01-10T16:45:47;99918.53;;;11.76;100.00
48796;BME280;34607;48.520;-1.330;2023-01-10T16:48:17;99914.19;;;11.71;100.00
48796;BME280;34607;48.520;-1.330;2023-01-10T16:50:45;99936.72;;;11.83;100.00
48796;BME280;34607;48.520;-1.330;2023-01-10T16:53:13;99927.19;;;11.80;100.00
48796;BME280;34607;48.520;-1.330;2023-01-10T16:55:42;99934.13;;;11.79;100.00
48796;BME280;34607;48.520;-1.330;2023-01-10T16:58:10;99923.75;;;11.83;100.00
48796;BME280;34607;48.520;-1.330;2023-01-10T17:00:40;99924.59;;;11.80;100.00
48796;BME280;34607;48.520;-1.330;2023-01-10T17:03:11;99935.00;;;11.83;100.00
48796;BME280;34607;48.520;-1.330;2023-01-10T17:05:41;99921.97;;;11.77;100.00
48796;BME280;34607;48.520;-1.330;2023-01-10T17:08:09;99927.22;;;11.85;100.00
48796;BME280;34607;48.520;-1.330;2023-01-10T17:10:40;99928.97;;;11.84;100.00
48796;BME280;34607;48.520;-1.330;2023-01-10T17:13:08;99924.63;;;11.83;100.00
48796;BME280;34607;48.520;-1.330;2023-01-10T17:15:37;99923.75;;;11.83;100.00
48796;BME280;34607;48.520;-1.330;2023-01-10T17:18:04;99928.94;;;11.86;100.00
48796;BME280;34607;48.520;-1.330;2023-01-10T17:20:31;99925.50;;;11.87;100.00
48796;BME280;34607;48.520;-1.330;2023-01-10T17:23:00;99918.63;;;11.92;100.00
48796;BME280;34607;48.520;-1.330;2023-01-10T17:25:27;99912.50;;;11.84;100.00
48796;BME280;34607;48.520;-1.330;2023-01-10T17:27:54;99915.97;;;11.87;100.00
48796;BME280;34607;48.520;-1.330;2023-01-10T17:30:21;99914.25;;;11.85;100.00
48796;BME280;34607;48.520;-1.330;2023-01-10T17:32:48;99920.31;;;11.87;100.00
48796;BME280;34607;48.520;-1.330;2023-01-10T17:35:15;99910.78;;;11.79;100.00
48796;BME280;34607;48.520;-1.330;2023-01-10T17:37:42;99924.63;;;11.85;100.00
48796;BME280;34607;48.520;-1.330;2023-01-10T17:40:12;99910.81;;;11.84;100.00
48796;BME280;34607;48.520;-1.330;2023-01-10T17:42:39;99918.56;;;11.81;100.00
48796;BME280;34607;48.520;-1.330;2023-01-10T17:45:07;99921.16;;;11.81;100.00
48796;BME280;34607;48.520;-1.330;2023-01-10T17:47:34;99917.69;;;11.77;100.00
48796;BME280;34607;48.520;-1.330;2023-01-10T17:50:01;99909.88;;;11.74;100.00
48796;BME280;34607;48.520;-1.330;2023-01-10T17:52:29;99914.19;;;11.77;100.00
48796;BME280;34607;48.520;-1.330;2023-01-10T17:54:56;99909.88;;;11.80;100.00
48796;BME280;34607;48.520;-1.330;2023-01-10T17:57:24;99897.81;;;11.79;100.00
48796;BME280;34607;48.520;-1.330;2023-01-10T17:59:51;99911.66;;;11.85;100.00
48796;BME280;34607;48.520;-1.330;2023-01-10T18:02:18;99910.78;;;11.83;100.00
48796;BME280;34607;48.520;-1.330;2023-01-10T18:04:46;99909.06;;;11.85;100.00
48796;BME280;34607;48.520;-1.330;2023-01-10T18:07:13;99909.94;;;11.88;100.00
48796;BME280;34607;48.520;-1.330;2023-01-10T18:09:40;99904.75;;;11.88;100.00
48796;BME280;34607;48.520;-1.330;2023-01-10T18:12:07;99905.59;;;11.89;100.00
48796;BME280;34607;48.520;-1.330;2023-01-10T18:14:35;99883.16;;;11.89;100.00
48796;BME280;34607;48.520;-1.330;2023-01-10T18:17:04;99880.56;;;11.91;100.00
48796;BME280;34607;48.520;-1.330;2023-01-10T18:19:32;99875.38;;;11.92;100.00
48796;BME280;34607;48.520;-1.330;2023-01-10T18:21:59;99874.53;;;11.92;100.00
48796;BME280;34607;48.520;-1.330;2023-01-10T18:24:50;99884.91;;;11.93;100.00
48796;BME280;34607;48.520;-1.330;2023-01-10T18:27:18;99884.00;;;11.88;100.00
48796;BME280;34607;48.520;-1.330;2023-01-10T18:29:47;99870.19;;;11.94;100.00
48796;BME280;34607;48.520;-1.330;2023-01-10T18:32:14;99878.00;;;11.95;100.00
48796;BME280;34607;48.520;-1.330;2023-01-10T18:34:41;99871.94;;;11.95;100.00
48796;BME280;34607;48.520;-1.330;2023-01-10T18:37:09;99876.25;;;11.99;100.00
48796;BME280;34607;48.520;-1.330;2023-01-10T18:39:36;99863.28;;;11.99;100.00
48796;BME280;34607;48.520;-1.330;2023-01-10T18:42:03;99862.44;;;12.02;100.00
48796;BME280;34607;48.520;-1.330;2023-01-10T18:44:31;99859.88;;;12.05;100.00
48796;BME280;34607;48.520;-1.330;2023-01-10T18:46:59;99865.91;;;12.07;100.00
48796;BME280;34607;48.520;-1.330;2023-01-10T18:49:26;99852.94;;;12.07;100.00
48796;BME280;34607;48.520;-1.330;2023-01-10T18:51:53;99856.41;;;12.07;100.00
48796;BME280;34607;48.520;-1.330;2023-01-10T18:54:20;99853.81;;;12.07;100.00
48796;BME280;34607;48.520;-1.330;2023-01-10T18:56:47;99843.41;;;12.07;100.00
48796;BME280;34607;48.520;-1.330;2023-01-10T18:59:15;99855.56;;;12.08;100.00
48796;BME280;34607;48.520;-1.330;2023-01-10T19:01:43;99859.84;;;12.06;100.00
48796;BME280;34607;48.520;-1.330;2023-01-10T19:04:12;99846.00;;;12.04;100.00
48796;BME280;34607;48.520;-1.330;2023-01-10T19:06:39;99836.50;;;12.08;100.00
48796;BME280;34607;48.520;-1.330;2023-01-10T19:09:06;99842.56;;;12.11;100.00
48796;BME280;34607;48.520;-1.330;2023-01-10T19:11:33;99830.44;;;12.09;100.00
48796;BME280;34607;48.520;-1.330;2023-01-10T19:14:00;99842.56;;;12.14;100.00
48796;BME280;34607;48.520;-1.330;2023-01-10T19:16:28;99833.03;;;12.16;100.00
48796;BME280;34607;48.520;-1.330;2023-01-10T19:18:57;99841.72;;;12.14;100.00
48796;BME280;34607;48.520;-1.330;2023-01-10T19:21:28;99833.94;;;12.15;100.00
48796;BME280;34607;48.520;-1.330;2023-01-10T19:23:59;99817.47;;;12.16;100.00
48796;BME280;34607;48.520;-1.330;2023-01-10T19:26:27;99807.97;;;12.11;100.00
48796;BME280;34607;48.520;-1.330;2023-01-10T19:28:54;99807.97;;;12.15;100.00
48796;BME280;34607;48.520;-1.330;2023-01-10T19:31:22;99811.44;;;12.17;100.00
48796;BME280;34607;48.520;-1.330;2023-01-10T19:33:50;99790.66;;;12.08;100.00
48796;BME280;34607;48.520;-1.330;2023-01-10T19:36:19;99790.66;;;12.05;100.00
48796;BME280;34607;48.520;-1.330;2023-01-10T19:38:52;99775.94;;;12.01;100.00
48796;BME280;34607;48.520;-1.330;2023-01-10T19:41:20;99807.09;;;12.18;100.00
48796;BME280;34607;48.520;-1.330;2023-01-10T19:43:47;99795.88;;;12.19;100.00
48796;BME280;34607;48.520;-1.330;2023-01-10T19:46:14;99788.94;;;12.23;100.00
48796;BME280;34607;48.520;-1.330;2023-01-10T19:48:41;99789.81;;;12.20;100.00
48796;BME280;34607;48.520;-1.330;2023-01-10T19:51:10;99793.25;;;12.19;100.00
48796;BME280;34607;48.520;-1.330;2023-01-10T19:53:38;99793.28;;;12.22;100.00
48796;BME280;34607;48.520;-1.330;2023-01-10T19:56:08;99768.16;;;12.16;100.00
48796;BME280;34607;48.520;-1.330;2023-01-10T19:58:36;99760.38;;;12.18;100.00
48796;BME280;34607;48.520;-1.330;2023-01-10T20:01:08;99675.53;;;11.60;100.00
48796;BME280;34607;48.520;-1.330;2023-01-10T20:03:36;99755.19;;;12.12;100.00
48796;BME280;34607;48.520;-1.330;2023-01-10T20:06:05;99787.19;;;12.25;100.00
48796;BME280;34607;48.520;-1.330;2023-01-10T20:08:34;99782.00;;;12.12;100.00
48796;BME280;34607;48.520;-1.330;2023-01-10T20:11:01;99780.28;;;12.22;100.00
48796;BME280;34607;48.520;-1.330;2023-01-10T20:13:32;99780.28;;;12.22;100.00
48796;BME280;34607;48.520;-1.330;2023-01-10T20:16:00;99772.50;;;12.17;100.00
48796;BME280;34607;48.520;-1.330;2023-01-10T20:18:28;99775.09;;;12.17;100.00
48796;BME280;34607;48.520;-1.330;2023-01-10T20:20:55;99774.25;;;12.17;100.00
48796;BME280;34607;48.520;-1.330;2023-01-10T20:23:23;99786.34;;;12.20;100.00
48796;BME280;34607;48.520;-1.330;2023-01-10T20:25:56;99788.06;;;12.17;100.00
48796;BME280;34607;48.520;-1.330;2023-01-10T20:28:23;99784.63;;;12.15;100.00
48796;BME280;34607;48.520;-1.330;2023-01-10T20:30:52;99785.47;;;12.17;100.00
48796;BME280;34607;48.520;-1.330;2023-01-10T20:33:19;99777.69;;;12.13;100.00
48796;BME280;34607;48.520;-1.330;2023-01-10T20:35:54;99775.09;;;12.07;100.00
48796;BME280;34607;48.520;-1.330;2023-01-10T20:38:22;99785.47;;;12.08;100.00
48796;BME280;34607;48.520;-1.330;2023-01-10T20:40:49;99786.34;;;12.07;100.00
48796;BME280;34607;48.520;-1.330;2023-01-10T20:43:16;99786.34;;;12.09;100.00
48796;BME280;34607;48.520;-1.330;2023-01-10T20:45:43;99782.88;;;12.08;100.00
48796;BME280;34607;48.520;-1.330;2023-01-10T20:48:12;99782.00;;;12.03;100.00
48796;BME280;34607;48.520;-1.330;2023-01-10T20:50:40;99775.06;;;12.02;100.00
48796;BME280;34607;48.520;-1.330;2023-01-10T20:53:08;99772.47;;;11.97;100.00
48796;BME280;34607;48.520;-1.330;2023-01-10T20:55:35;99770.78;;;11.99;100.00
48796;BME280;34607;48.520;-1.330;2023-01-10T20:58:03;99757.78;;;11.95;100.00
48796;BME280;34607;48.520;-1.330;2023-01-10T21:00:30;99764.69;;;12.01;100.00
48796;BME280;34607;48.520;-1.330;2023-01-10T21:02:58;99743.91;;;11.90;100.00
48796;BME280;34607;48.520;-1.330;2023-01-10T21:05:26;99769.88;;;11.99;100.00
48796;BME280;34607;48.520;-1.330;2023-01-10T21:07:54;99768.16;;;11.98;100.00
48796;BME280;34607;48.520;-1.330;2023-01-10T21:10:21;99762.09;;;11.96;100.00